Redan, GA (30074)

03:42 PM EDT on august 31, 2015 (GMT -0400)
Havenridge | | Change Station
CLOSE
Current Station
Staţie meteo personală
Location: Conyers, GA
Elevation: 879 ft
Nearby Weather Stations

Elev 879 ft 33.67 °N, 84.08 °W | Updated 13 minutes ago

Cer acoperit
Cer acoperit
84.6 °F
Feels Like 89 °F
N
3.7
Vânt variabil Vânt from VSV

astăzi
High -- | Low -- °F
--% Chance of Precip.
Ieri
High -- | Low -- °F
Precip. -- inch
7:09 AM 8:03 PM
Lună în descreştere, 94% visible
Presiunea 30.09 inch
Vizibilitatea 10.0 mile
Nori Cer acoperit 6000 ft
Indicele de căldură 89 °F
Punctul de rouă 69 °F
Umiditatea 60%
Precipitaţii 0.00 inch
Adâncimea zăpezii Not available.
UV 3 out of 12
Pollen 7.20 out of 12
Calitatea aerului Not available.
Flu Activity Not available.
METAR KPDK 311853Z 25005KT 10SM OVC060 26/21 A3012 RMK AO2 SLP187 T02560206
Presiunea 30.09 inch
Vizibilitatea 10.0 mile
Nori Cer acoperit 6000 ft
Indicele de căldură 89 °F
Punctul de rouă 69 °F
Umiditatea 60%
Precipitaţii 0.00 inch
Adâncimea zăpezii Not available.
UV 3 out of 12
Pollen 7.20 out of 12
Calitatea aerului Not available.
Flu Activity Not available.
METAR KPDK 311853Z 25005KT 10SM OVC060 26/21 A3012 RMK AO2 SLP187 T02560206

10-Day Weather Forecast

×

Almanac

Astronomie

Aug. 31, 2015 Răsărit Apus
Timpul Actual
Crepusculul Civil
Crepusculul nautic
Răsărit Astronomic
Luna
Durata zilei lumină
Lungimea zilei
Tomorrow will be .
, % of the Moon is Illuminated

Extremele de azi

State Highs State Lows

Community

WunderPhotos

Upload Photos

1,851,346 photos uploaded!

WunderBlogs® & News

Nearby

Calitatea aerului

  Calitatea aerului Index de calitate a aerului Poluat
Not available.

Adâncimea zapezii

Station Depth Elevation

Earthquake Activity

Oraş Distance Mag. Time & Date
Minimum magnitude displayed is 2.5.

Coastal Water Temperatures

Locul Temperatura

Stations

Nearby Weather Stations

Locaţia staţiei Temp Vânt rece Punctul de rouă Umiditatea Vânt Precip. Elev Actualizare Type